Time;durP1;ratioP1;P1;durP2;ratioP2;P2;SDS_P1;SDS_P2;PMS_P1;PMS_P2;Temp;Humidity;BMP_temperature;BMP_pressure;BME280_temperature;BME280_humidity;BME280_pressure;Samples;Min_cycle;Max_cycle;Signal;HPM_P1;HPM_P2
2021/12/20 00:01:44;;;;;;;2.70;2.50;;;1.40;99.90;;;;;;5012367;28;20438;-66
2021/12/20 00:04:09;;;;;;;2.27;2.17;;;1.40;99.90;;;;;;5012399;28;20458;-67
2021/12/20 00:06:35;;;;;;;3.10;2.20;;;1.40;99.90;;;;;;5012653;28;20427;-75
2021/12/20 00:09:01;;;;;;;2.40;2.20;;;1.40;99.90;;;;;;5012466;28;20510;-67
2021/12/20 00:11:26;;;;;;;2.90;2.30;;;1.30;99.90;;;;;;5012063;28;20218;-75
2021/12/20 00:13:52;;;;;;;3.50;2.17;;;1.30;99.90;;;;;;5012301;28;20697;-75
2021/12/20 00:16:17;;;;;;;2.77;2.57;;;1.30;99.90;;;;;;5013280;28;20263;-76
2021/12/20 00:18:43;;;;;;;2.60;2.40;;;1.20;99.90;;;;;;5012651;28;20661;-70
2021/12/20 00:21:10;;;;;;;2.08;1.95;;;1.20;99.90;;;;;;5013169;28;20629;-75
2021/12/20 00:23:36;;;;;;;3.47;2.55;;;1.20;99.90;;;;;;5011858;28;20200;-67
2021/12/20 00:26:02;;;;;;;1.97;1.87;;;1.20;99.90;;;;;;5013149;28;20200;-73
2021/12/20 00:28:28;;;;;;;3.60;2.70;;;1.20;99.90;;;;;;5013105;28;20168;-66
2021/12/20 00:30:54;;;;;;;4.33;1.83;;;1.20;99.90;;;;;;5019574;28;20172;-75
2021/12/20 00:33:19;;;;;;;2.47;2.27;;;1.30;99.90;;;;;;5031894;28;20171;-76
2021/12/20 00:35:46;;;;;;;3.03;1.80;;;1.30;99.90;;;;;;5032752;28;20426;-75
2021/12/20 00:40:56;;;;;;;5.80;2.40;;;1.30;99.90;;;;;;5032963;28;20401;-75
2021/12/20 00:43:22;;;;;;;2.77;2.10;;;1.30;99.90;;;;;;5031739;28;20966;-66
2021/12/20 00:45:47;;;;;;;2.30;2.20;;;1.30;99.90;;;;;;5032240;28;20206;-66
2021/12/20 00:48:13;;;;;;;5.87;2.50;;;1.20;99.90;;;;;;5031653;28;20183;-75
2021/12/20 00:50:41;;;;;;;1.50;1.40;;;1.20;99.90;;;;;;5032330;28;20209;-76
2021/12/20 00:53:07;;;;;;;2.40;2.30;;;1.20;99.90;;;;;;5031723;28;20434;-68
2021/12/20 00:55:33;;;;;;;2.70;2.60;;;1.20;99.90;;;;;;5032690;28;20433;-66
2021/12/20 00:57:59;;;;;;;2.50;2.40;;;1.20;99.90;;;;;;5032020;28;20537;-67
2021/12/20 01:00:28;;;;;;;1.85;1.75;;;1.20;99.90;;;;;;5032489;28;20830;-68
2021/12/20 01:02:55;;;;;;;2.63;2.40;;;1.20;99.90;;;;;;5028420;28;20211;-75
2021/12/20 01:05:23;;;;;;;2.20;2.10;;;1.10;99.90;;;;;;5024212;28;20426;-66
2021/12/20 01:07:49;;;;;;;5.30;2.05;;;1.20;99.90;;;;;;5032605;28;20164;-67
2021/12/20 01:10:16;;;;;;;4.23;2.87;;;1.20;99.90;;;;;;5031264;28;20175;-66
2021/12/20 01:12:48;;;;;;;2.95;1.98;;;1.20;99.90;;;;;;5030945;28;20616;-73
2021/12/20 01:15:21;;;;;;;2.20;1.98;;;1.20;99.90;;;;;;5013734;28;20544;-75
2021/12/20 01:17:48;;;;;;;2.08;1.88;;;1.30;99.90;;;;;;5012757;28;20629;-67
2021/12/20 01:20:15;;;;;;;3.83;2.07;;;1.20;99.90;;;;;;5011475;28;20176;-66
2021/12/20 01:22:45;;;;;;;2.80;2.60;;;1.30;99.90;;;;;;5019985;28;20457;-76
2021/12/20 01:25:11;;;;;;;8.20;2.17;;;1.30;99.90;;;;;;5032270;28;20414;-66
2021/12/20 01:27:37;;;;;;;6.90;2.30;;;1.30;99.90;;;;;;5031955;28;20418;-67
2021/12/20 01:30:05;;;;;;;2.07;1.97;;;1.40;99.90;;;;;;5032544;28;20523;-76
2021/12/20 01:32:32;;;;;;;2.80;2.47;;;1.40;99.90;;;;;;5034286;28;20322;-76
2021/12/20 01:34:57;;;;;;;2.83;2.20;;;1.40;99.90;;;;;;5034631;28;20415;-73
2021/12/20 01:37:23;;;;;;;7.43;2.43;;;1.40;99.90;;;;;;5030813;28;20438;-66
2021/12/20 01:39:48;;;;;;;1.70;1.60;;;1.30;99.90;;;;;;5014957;28;20168;-76
2021/12/20 01:42:18;;;;;;;1.80;1.70;;;1.30;99.90;;;;;;5014895;28;20174;-66
2021/12/20 01:44:45;;;;;;;4.23;2.73;;;1.20;99.90;;;;;;5015764;28;20622;-66
2021/12/20 01:47:12;;;;;;;1.70;1.60;;;1.20;99.90;;;;;;5015500;28;20419;-69
2021/12/20 01:49:51;;;;;;;4.50;2.42;;;1.20;99.90;;;;;;5015461;28;20621;-76
2021/12/20 01:52:20;;;;;;;5.40;3.00;;;1.10;99.90;;;;;;5028850;28;20191;-67
2021/12/20 01:54:45;;;;;;;3.33;3.13;;;1.10;99.90;;;;;;5035308;28;20898;-66
2021/12/20 01:57:11;;;;;;;2.40;2.20;;;1.20;99.90;;;;;;5035120;28;20434;-66
2021/12/20 01:59:40;;;;;;;2.50;2.30;;;1.20;99.90;;;;;;5034218;28;20620;-66
2021/12/20 02:02:06;;;;;;;2.37;1.93;;;1.20;99.90;;;;;;5034353;28;20502;-66
2021/12/20 02:04:42;;;;;;;2.70;2.50;;;1.20;99.90;;;;;;5034921;28;20988;-75
2021/12/20 02:07:08;;;;;;;2.10;2.00;;;1.20;99.90;;;;;;5034910;28;20461;-75
2021/12/20 02:09:34;;;;;;;4.93;2.30;;;1.20;99.90;;;;;;5032568;28;20179;-76
2021/12/20 02:12:00;;;;;;;2.37;2.27;;;1.20;99.90;;;;;;5013301;28;20168;-71
2021/12/20 02:14:26;;;;;;;2.20;2.10;;;1.20;99.90;;;;;;5015708;28;20172;-66
2021/12/20 02:16:51;;;;;;;5.00;1.92;;;1.10;99.90;;;;;;5034932;28;20265;-76
2021/12/20 02:19:18;;;;;;;2.10;2.00;;;1.10;99.90;;;;;;5034977;28;20171;-66
2021/12/20 02:21:45;;;;;;;2.72;2.53;;;1.10;99.90;;;;;;5034952;28;20168;-75
2021/12/20 02:24:12;;;;;;;1.73;1.63;;;1.10;99.90;;;;;;5033850;28;20239;-66
2021/12/20 02:26:38;;;;;;;2.08;1.95;;;1.10;99.90;;;;;;5015964;28;20197;-66
2021/12/20 02:29:07;;;;;;;1.93;1.80;;;1.00;99.90;;;;;;5013994;28;20179;-71
2021/12/20 02:37:19;;;;;;;2.27;2.17;;;1.00;99.90;;;;;;5034704;28;20333;-76
2021/12/20 02:39:45;;;;;;;3.73;2.10;;;0.90;99.90;;;;;;5019388;28;20423;-67
2021/12/20 02:42:15;;;;;;;3.85;2.05;;;0.90;99.90;;;;;;5020859;28;20885;-76
2021/12/20 02:45:05;;;;;;;2.00;1.90;;;0.90;99.90;;;;;;5034483;28;20163;-67
2021/12/20 02:47:31;;;;;;;4.10;2.27;;;0.80;99.90;;;;;;5023626;28;20910;-67
2021/12/20 02:49:57;;;;;;;2.10;2.00;;;0.80;99.90;;;;;;5014589;28;20546;-76
2021/12/20 02:52:23;;;;;;;1.90;1.80;;;0.80;99.90;;;;;;5013796;28;20173;-66
2021/12/20 02:54:49;;;;;;;2.85;2.42;;;0.80;99.90;;;;;;5014518;28;20222;-76
2021/12/20 02:57:15;;;;;;;2.57;2.37;;;0.80;99.90;;;;;;5013301;28;20196;-66
2021/12/20 02:59:41;;;;;;;2.40;2.30;;;0.80;99.90;;;;;;5029125;28;20207;-73
2021/12/20 03:02:09;;;;;;;1.90;1.80;;;0.80;99.90;;;;;;5026150;28;20448;-75
2021/12/20 03:04:35;;;;;;;7.35;3.28;;;0.80;99.90;;;;;;5014350;28;20446;-70
2021/12/20 03:07:10;;;;;;;4.00;2.43;;;0.80;99.90;;;;;;5014305;28;20188;-67
2021/12/20 03:09:39;;;;;;;3.15;2.15;;;0.80;99.90;;;;;;5015362;28;20930;-66
2021/12/20 03:12:08;;;;;;;2.72;2.50;;;0.80;99.90;;;;;;5013166;28;20167;-76
2021/12/20 03:14:41;;;;;;;3.38;2.30;;;0.80;99.90;;;;;;5014226;28;20585;-76
2021/12/20 03:17:07;;;;;;;2.30;2.10;;;0.80;99.90;;;;;;5014106;28;20203;-66
2021/12/20 03:19:33;;;;;;;2.38;2.28;;;0.80;99.90;;;;;;5013575;28;20175;-76
2021/12/20 03:22:00;;;;;;;1.67;1.57;;;0.90;99.90;;;;;;5013509;28;20180;-71
2021/12/20 03:24:26;;;;;;;1.95;1.85;;;0.90;99.90;;;;;;5013802;28;20458;-74
2021/12/20 03:26:52;;;;;;;2.47;2.27;;;0.90;99.90;;;;;;5012810;28;20249;-75
2021/12/20 03:29:18;;;;;;;3.93;2.00;;;0.90;99.90;;;;;;5013859;28;20168;-66
2021/12/20 03:31:43;;;;;;;3.58;2.65;;;0.90;99.90;;;;;;5013982;28;20829;-67
2021/12/20 03:34:10;;;;;;;2.50;1.93;;;1.00;99.90;;;;;;5013046;28;20207;-66
2021/12/20 03:36:36;;;;;;;3.08;2.25;;;0.90;99.90;;;;;;5013757;28;20653;-71
2021/12/20 03:39:07;;;;;;;2.73;2.50;;;1.00;99.90;;;;;;5013177;28;20176;-75
2021/12/20 03:41:33;;;;;;;1.75;1.65;;;1.00;99.90;;;;;;5013773;28;20406;-66
2021/12/20 03:43:59;;;;;;;3.30;3.03;;;1.10;99.90;;;;;;5012719;28;20196;-76
2021/12/20 03:46:26;;;;;;;2.40;2.20;;;1.00;99.90;;;;;;5013611;28;20415;-67
2021/12/20 03:48:51;;;;;;;2.90;2.70;;;1.00;99.90;;;;;;5013853;28;20214;-66
2021/12/20 03:51:17;;;;;;;1.87;1.77;;;1.00;99.90;;;;;;5012127;28;20431;-74
2021/12/20 03:53:43;;;;;;;2.90;2.70;;;1.00;99.90;;;;;;5011887;28;20157;-74
2021/12/20 03:56:08;;;;;;;3.07;2.80;;;1.00;99.90;;;;;;5012923;28;20188;-67
2021/12/20 03:58:35;;;;;;;7.00;2.37;;;1.00;99.90;;;;;;5013518;28;20172;-66
2021/12/20 04:01:05;;;;;;;2.15;2.05;;;1.00;99.90;;;;;;5013631;28;20192;-68
2021/12/20 04:03:33;;;;;;;2.38;1.70;;;1.00;99.90;;;;;;5012497;28;20196;-66
2021/12/20 04:05:59;;;;;;;1.50;1.40;;;1.00;99.90;;;;;;5013327;28;20188;-76
2021/12/20 04:08:25;;;;;;;2.37;2.27;;;1.00;99.90;;;;;;5013442;28;20168;-66
2021/12/20 04:10:51;;;;;;;1.97;1.87;;;1.00;99.90;;;;;;5013531;28;20399;-66
2021/12/20 04:13:16;;;;;;;2.83;2.63;;;1.00;99.90;;;;;;5012449;28;20259;-75
2021/12/20 04:15:42;;;;;;;1.90;1.80;;;1.00;99.90;;;;;;5012656;28;20199;-66
2021/12/20 04:18:07;;;;;;;1.57;1.47;;;1.00;99.90;;;;;;5013285;28;20169;-66
2021/12/20 04:20:33;;;;;;;2.07;1.97;;;1.00;99.90;;;;;;5012128;28;20565;-76
2021/12/20 04:22:59;;;;;;;1.47;1.37;;;1.00;99.90;;;;;;5012432;28;20192;-66
2021/12/20 04:25:25;;;;;;;2.20;2.10;;;1.00;99.90;;;;;;5013192;28;20172;-66
2021/12/20 04:27:51;;;;;;;6.93;2.70;;;1.00;99.90;;;;;;5012980;28;20168;-75
2021/12/20 04:30:17;;;;;;;6.50;2.60;;;1.00;99.90;;;;;;5013195;28;20214;-76
2021/12/20 04:32:45;;;;;;;2.70;1.90;;;1.00;99.90;;;;;;5012262;28;20414;-66
2021/12/20 04:35:13;;;;;;;3.65;2.17;;;1.10;99.90;;;;;;5012382;28;20407;-76
2021/12/20 04:37:43;;;;;;;2.60;2.13;;;1.10;99.90;;;;;;5013192;28;20199;-66
2021/12/20 04:40:14;;;;;;;1.80;1.70;;;1.10;99.90;;;;;;5013151;28;20168;-66
2021/12/20 04:42:40;;;;;;;3.13;2.85;;;1.00;99.90;;;;;;5012068;28;21021;-66
2021/12/20 04:45:06;;;;;;;2.20;2.10;;;1.00;99.90;;;;;;5013074;28;20259;-74
2021/12/20 04:47:32;;;;;;;1.70;1.60;;;1.10;99.90;;;;;;5012877;28;20192;-67
2021/12/20 04:49:59;;;;;;;2.90;1.90;;;1.00;99.90;;;;;;5011546;28;20239;-66
2021/12/20 04:52:25;;;;;;;4.17;2.57;;;1.10;99.90;;;;;;5012030;28;20629;-67
2021/12/20 04:54:50;;;;;;;2.30;2.00;;;1.10;99.90;;;;;;5012418;28;20415;-75
2021/12/20 04:57:16;;;;;;;2.70;1.50;;;1.10;99.90;;;;;;5012837;28;20238;-76
2021/12/20 04:59:42;;;;;;;2.37;2.20;;;1.20;99.90;;;;;;5012985;28;20172;-67
2021/12/20 05:02:08;;;;;;;2.77;2.10;;;1.20;99.90;;;;;;5011847;28;20414;-72
2021/12/20 05:04:33;;;;;;;2.33;2.13;;;1.20;99.90;;;;;;5013953;28;20169;-66
2021/12/20 05:06:59;;;;;;;1.80;1.70;;;1.10;99.90;;;;;;5024914;28;20659;-75
2021/12/20 05:09:28;;;;;;;2.20;2.10;;;1.10;99.90;;;;;;5036012;28;20171;-68
2021/12/20 05:12:01;;;;;;;2.13;2.03;;;1.10;99.90;;;;;;5035422;28;20572;-66
2021/12/20 05:14:27;;;;;;;2.10;1.90;;;1.10;99.90;;;;;;5020665;28;20890;-75
2021/12/20 05:16:52;;;;;;;7.03;2.03;;;1.10;99.90;;;;;;5016238;28;20503;-76
2021/12/20 05:19:18;;;;;;;1.83;1.73;;;1.10;99.90;;;;;;5016379;28;20172;-76
2021/12/20 05:21:44;;;;;;;2.63;1.93;;;1.10;99.90;;;;;;5016368;28;20533;-66
2021/12/20 05:24:09;;;;;;;4.20;2.00;;;1.10;99.90;;;;;;5027012;28;20676;-68
2021/12/20 05:26:35;;;;;;;3.00;2.67;;;1.10;99.90;;;;;;5035881;28;20186;-75
2021/12/20 05:29:06;;;;;;;2.03;1.83;;;1.00;99.90;;;;;;5025121;28;20172;-75
2021/12/20 05:31:33;;;;;;;1.92;1.75;;;1.00;99.90;;;;;;5016243;28;20182;-68
2021/12/20 05:33:59;;;;;;;2.65;2.45;;;1.10;99.90;;;;;;5015246;28;20174;-66
2021/12/20 05:36:25;;;;;;;5.53;2.00;;;1.10;99.90;;;;;;5015908;28;20192;-69
2021/12/20 05:38:50;;;;;;;1.90;1.80;;;1.10;99.90;;;;;;5018468;28;20183;-76
2021/12/20 05:41:17;;;;;;;2.70;2.37;;;1.10;99.90;;;;;;5015947;28;20173;-68
2021/12/20 05:43:42;;;;;;;3.28;2.72;;;1.10;99.90;;;;;;5015023;28;20200;-69
2021/12/20 05:46:08;;;;;;;2.90;2.20;;;1.10;99.90;;;;;;5013963;28;20718;-74
2021/12/20 05:48:33;;;;;;;5.10;2.07;;;1.00;99.90;;;;;;5015549;28;20172;-66
2021/12/20 05:50:59;;;;;;;1.87;1.77;;;1.10;99.90;;;;;;5014624;28;20188;-73
2021/12/20 05:53:25;;;;;;;2.60;1.90;;;1.10;99.90;;;;;;5025897;28;20176;-66
2021/12/20 05:55:50;;;;;;;2.70;2.60;;;1.10;99.90;;;;;;5027620;28;20669;-76
2021/12/20 05:58:16;;;;;;;2.10;2.00;;;1.10;99.90;;;;;;5015507;28;20188;-66
2021/12/20 06:00:42;;;;;;;3.10;2.43;;;1.00;99.90;;;;;;5027003;28;20179;-65
2021/12/20 06:03:09;;;;;;;7.13;2.23;;;1.10;99.90;;;;;;5034294;28;20211;-66
2021/12/20 06:05:35;;;;;;;3.30;1.97;;;1.10;99.90;;;;;;5019675;28;20549;-74
2021/12/20 06:08:02;;;;;;;2.23;2.10;;;1.20;99.90;;;;;;5027551;28;20468;-66
2021/12/20 06:10:27;;;;;;;1.83;1.73;;;1.20;99.90;;;;;;5024901;28;20421;-66
2021/12/20 06:12:53;;;;;;;1.80;1.70;;;1.20;99.90;;;;;;5028653;28;20928;-65
2021/12/20 06:15:19;;;;;;;2.43;2.20;;;1.20;99.90;;;;;;5016126;28;20176;-75
2021/12/20 06:17:44;;;;;;;2.97;2.77;;;1.20;99.90;;;;;;5018805;28;20176;-66
2021/12/20 06:20:12;;;;;;;1.80;1.70;;;1.10;99.90;;;;;;5026544;28;20169;-75
2021/12/20 06:22:38;;;;;;;4.90;2.73;;;1.10;99.90;;;;;;5013615;28;20192;-67
2021/12/20 06:25:04;;;;;;;2.43;2.23;;;1.10;99.90;;;;;;5022883;28;20410;-70
2021/12/20 06:27:30;;;;;;;4.50;1.83;;;1.10;99.90;;;;;;5014948;28;20192;-67
2021/12/20 06:29:55;;;;;;;1.83;1.73;;;1.10;99.90;;;;;;5017466;28;20410;-66
2021/12/20 06:32:21;;;;;;;4.90;3.33;;;1.10;99.90;;;;;;5015815;28;20187;-75
2021/12/20 06:34:47;;;;;;;4.90;1.63;;;1.10;99.90;;;;;;5026579;28;20180;-66
2021/12/20 06:37:13;;;;;;;3.50;3.10;;;1.10;99.90;;;;;;5014823;28;20618;-66
2021/12/20 06:39:38;;;;;;;3.17;2.70;;;1.10;99.90;;;;;;5028639;28;20175;-76
2021/12/20 06:42:05;;;;;;;3.33;3.13;;;1.10;99.90;;;;;;5032006;28;20171;-70
2021/12/20 06:44:30;;;;;;;2.55;2.45;;;1.10;99.90;;;;;;5034491;28;20526;-66
2021/12/20 06:46:56;;;;;;;3.47;3.20;;;1.10;99.90;;;;;;5034421;28;20199;-75
2021/12/20 06:49:23;;;;;;;3.10;2.60;;;1.10;99.90;;;;;;5034434;28;20168;-76
2021/12/20 06:51:49;;;;;;;3.40;3.20;;;1.00;99.90;;;;;;5034188;28;20418;-74
2021/12/20 06:54:18;;;;;;;3.53;2.63;;;1.00;99.90;;;;;;5033707;28;20410;-70
2021/12/20 06:56:44;;;;;;;3.37;2.83;;;1.00;99.90;;;;;;5033961;28;20426;-67
2021/12/20 06:59:11;;;;;;;3.85;3.65;;;1.00;99.90;;;;;;5033721;28;20414;-66
2021/12/20 07:01:37;;;;;;;9.83;5.87;;;0.90;99.90;;;;;;5034339;28;20206;-75
2021/12/20 07:04:04;;;;;;;3.60;2.50;;;0.90;99.90;;;;;;5033212;28;20504;-66
2021/12/20 07:06:30;;;;;;;9.23;4.37;;;0.90;99.90;;;;;;5034023;28;20279;-75
2021/12/20 07:08:56;;;;;;;3.43;2.60;;;0.90;99.90;;;;;;5034093;28;20426;-72
2021/12/20 07:11:22;;;;;;;2.53;2.33;;;0.90;99.90;;;;;;5033913;28;20395;-67
2021/12/20 07:13:48;;;;;;;2.37;2.27;;;0.90;99.90;;;;;;5032724;28;20402;-72
2021/12/20 07:16:15;;;;;;;2.23;2.13;;;0.90;99.90;;;;;;5032410;28;20854;-75
2021/12/20 07:18:41;;;;;;;2.20;2.10;;;0.90;99.90;;;;;;5033885;28;20410;-66
2021/12/20 07:21:07;;;;;;;2.27;2.07;;;0.90;99.90;;;;;;5032598;28;20560;-66
2021/12/20 07:23:34;;;;;;;1.77;1.67;;;0.90;99.90;;;;;;5031581;28;20933;-66
2021/12/20 07:26:00;;;;;;;1.80;1.70;;;1.00;99.90;;;;;;5033632;28;20426;-76
2021/12/20 07:28:26;;;;;;;2.00;1.80;;;1.00;99.90;;;;;;5033688;28;20859;-74
2021/12/20 07:30:52;;;;;;;4.70;2.60;;;1.00;99.90;;;;;;5032534;28;20442;-66
2021/12/20 07:33:18;;;;;;;3.30;3.00;;;1.00;99.90;;;;;;5032008;28;20167;-68
2021/12/20 07:35:44;;;;;;;2.63;2.53;;;1.00;99.90;;;;;;5033600;28;20195;-70
2021/12/20 07:38:14;;;;;;;3.50;2.22;;;1.00;99.90;;;;;;5032354;28;20414;-66
2021/12/20 07:40:48;;;;;;;2.57;2.37;;;1.00;99.90;;;;;;5032187;28;20644;-66
2021/12/20 07:43:16;;;;;;;1.95;1.85;;;1.00;99.90;;;;;;5032350;28;20453;-70
2021/12/20 07:45:43;;;;;;;2.60;2.43;;;1.00;99.90;;;;;;5033419;28;20282;-66
2021/12/20 07:48:09;;;;;;;5.45;2.00;;;1.00;99.90;;;;;;5033420;28;20738;-66
2021/12/20 07:50:35;;;;;;;2.10;1.90;;;1.10;99.90;;;;;;5032867;28;20281;-73
2021/12/20 07:53:01;;;;;;;2.23;2.10;;;1.10;99.90;;;;;;5030920;28;20211;-67
2021/12/20 07:55:27;;;;;;;6.07;2.40;;;1.10;99.90;;;;;;5033130;28;20254;-68
2021/12/20 07:57:53;;;;;;;2.20;2.10;;;1.20;99.90;;;;;;5033255;28;20226;-66
2021/12/20 08:00:19;;;;;;;6.30;2.80;;;1.20;99.90;;;;;;5033267;28;20935;-66
2021/12/20 08:02:47;;;;;;;2.63;2.43;;;1.20;99.90;;;;;;5032231;28;20505;-76
2021/12/20 08:05:14;;;;;;;2.30;2.20;;;1.20;99.90;;;;;;5032926;28;20199;-74
2021/12/20 08:07:40;;;;;;;3.23;2.27;;;1.10;99.90;;;;;;5033029;28;20445;-66
2021/12/20 08:10:07;;;;;;;4.80;2.67;;;1.10;99.90;;;;;;5031293;28;20509;-66
2021/12/20 08:12:33;;;;;;;2.00;1.90;;;1.10;99.90;;;;;;5030985;28;20215;-67
2021/12/20 08:14:59;;;;;;;2.37;2.27;;;1.10;99.90;;;;;;5033089;28;20481;-67
2021/12/20 08:17:25;;;;;;;2.20;2.10;;;1.10;99.90;;;;;;5032842;28;20517;-73
2021/12/20 08:19:50;;;;;;;3.13;2.20;;;1.10;99.90;;;;;;5031903;28;20171;-66
2021/12/20 08:22:16;;;;;;;5.73;2.40;;;1.10;99.90;;;;;;5032081;28;20170;-68
2021/12/20 08:24:42;;;;;;;3.73;2.70;;;1.10;99.90;;;;;;5032889;28;20246;-76
2021/12/20 08:27:07;;;;;;;3.83;2.63;;;1.10;99.90;;;;;;5032908;28;20462;-76
2021/12/20 08:29:33;;;;;;;4.00;2.87;;;1.20;99.90;;;;;;5032574;28;20218;-66
2021/12/20 08:32:02;;;;;;;5.47;4.00;;;1.20;99.90;;;;;;5032073;28;20652;-72
2021/12/20 08:34:31;;;;;;;2.97;2.77;;;1.30;99.90;;;;;;5032889;28;20214;-73
2021/12/20 08:36:58;;;;;;;2.67;2.10;;;1.30;99.90;;;;;;5032708;28;20764;-76
2021/12/20 08:39:24;;;;;;;3.30;2.90;;;1.40;99.90;;;;;;5033700;28;20467;-66
2021/12/20 08:41:50;;;;;;;3.00;2.80;;;1.40;99.90;;;;;;5036570;28;20891;-66
2021/12/20 08:44:15;;;;;;;3.80;2.90;;;1.40;99.90;;;;;;5036153;28;20214;-76
2021/12/20 08:46:41;;;;;;;3.10;2.80;;;1.40;99.90;;;;;;5035418;28;20580;-65
2021/12/20 08:49:08;;;;;;;3.23;2.20;;;1.50;99.90;;;;;;5036474;28;20174;-76
2021/12/20 08:51:34;;;;;;;2.53;2.37;;;1.50;99.90;;;;;;5036276;28;20453;-68
2021/12/20 08:54:00;;;;;;;4.00;3.10;;;1.50;99.90;;;;;;5035680;28;20410;-66
2021/12/20 08:56:26;;;;;;;2.60;2.30;;;1.50;99.90;;;;;;5036445;28;20437;-75
2021/12/20 08:58:52;;;;;;;2.00;1.90;;;1.50;99.90;;;;;;5035304;28;20510;-66
2021/12/20 09:01:18;;;;;;;4.03;2.63;;;1.50;99.90;;;;;;5035223;28;20176;-76
2021/12/20 09:03:44;;;;;;;2.40;2.20;;;1.60;99.90;;;;;;5035468;28;20656;-68
2021/12/20 09:06:11;;;;;;;2.87;2.67;;;1.60;99.90;;;;;;5035425;28;20500;-71
2021/12/20 09:08:40;;;;;;;3.73;3.53;;;1.60;99.90;;;;;;5036372;28;20398;-65
2021/12/20 09:11:06;;;;;;;3.43;2.67;;;1.70;99.90;;;;;;5034858;28;20414;-69
2021/12/20 09:13:32;;;;;;;3.37;3.13;;;1.70;99.90;;;;;;5038665;28;20980;-67
2021/12/20 09:15:59;;;;;;;5.53;2.27;;;1.70;99.90;;;;;;5055675;28;20225;-66
2021/12/20 09:18:28;;;;;;;12.67;3.53;;;1.70;99.90;;;;;;5040721;28;20229;-76
2021/12/20 09:20:55;;;;;;;2.50;2.40;;;1.80;99.90;;;;;;5034917;28;20429;-67
2021/12/20 09:23:22;;;;;;;3.30;3.00;;;1.80;99.90;;;;;;5034860;28;20947;-76
2021/12/20 09:25:48;;;;;;;3.23;3.03;;;1.80;99.90;;;;;;5035661;28;20434;-68
2021/12/20 09:28:14;;;;;;;3.00;2.77;;;1.80;99.90;;;;;;5035261;28;20399;-76
2021/12/20 09:30:42;;;;;;;3.07;2.87;;;1.90;99.90;;;;;;5035198;28;20448;-75
2021/12/20 09:33:09;;;;;;;4.97;2.30;;;1.90;99.90;;;;;;5035003;28;20402;-67
2021/12/20 09:35:35;;;;;;;4.73;2.10;;;1.90;99.90;;;;;;5035775;28;20429;-67
2021/12/20 09:38:05;;;;;;;4.20;3.80;;;2.00;99.90;;;;;;5035886;28;20892;-67
2021/12/20 09:40:39;;;;;;;2.47;2.27;;;2.00;99.90;;;;;;5035790;28;20402;-76
2021/12/20 09:43:08;;;;;;;3.20;2.20;;;2.00;99.90;;;;;;5034723;28;20953;-76
2021/12/20 09:45:34;;;;;;;2.17;2.07;;;2.00;99.90;;;;;;5035492;28;20415;-69
2021/12/20 09:48:00;;;;;;;3.30;2.20;;;2.10;99.90;;;;;;5035028;28;20706;-76
2021/12/20 09:50:26;;;;;;;3.03;2.73;;;2.10;99.90;;;;;;5034722;28;20429;-76
2021/12/20 09:52:52;;;;;;;2.53;2.33;;;2.10;99.90;;;;;;5034050;28;20398;-67
2021/12/20 09:55:19;;;;;;;2.73;2.53;;;2.20;99.90;;;;;;5035462;28;20195;-67
2021/12/20 09:57:48;;;;;;;3.33;2.37;;;2.20;99.90;;;;;;5035412;28;20412;-77
2021/12/20 10:00:17;;;;;;;3.23;3.00;;;2.20;99.90;;;;;;5033968;28;20410;-77
2021/12/20 10:02:44;;;;;;;2.80;2.57;;;2.20;99.90;;;;;;5034457;28;20453;-67
2021/12/20 10:05:12;;;;;;;3.10;2.90;;;2.20;99.90;;;;;;5035324;28;20394;-68
2021/12/20 10:07:39;;;;;;;3.17;2.87;;;2.20;99.90;;;;;;5034637;28;20403;-76
2021/12/20 10:10:06;;;;;;;1.80;1.70;;;2.30;99.90;;;;;;5035248;28;20429;-71
2021/12/20 10:12:31;;;;;;;2.27;2.17;;;2.30;99.90;;;;;;5034162;28;20444;-66
2021/12/20 10:15:03;;;;;;;3.20;2.10;;;2.40;99.90;;;;;;5035154;28;20398;-76
2021/12/20 10:17:55;;;;;;;2.60;2.50;;;2.50;99.90;;;;;;5034999;28;20299;-67
2021/12/20 10:20:39;;;;;;;10.07;2.40;;;2.60;99.90;;;;;;5034986;28;20397;-77
2021/12/20 10:23:17;;;;;;;2.40;2.20;;;2.70;99.90;;;;;;5033380;28;20461;-77
2021/12/20 10:25:44;;;;;;;1.90;1.80;;;2.70;99.90;;;;;;5034845;28;20497;-67
2021/12/20 10:28:18;;;;;;;1.60;1.50;;;2.80;99.90;;;;;;5034963;28;20394;-77
2021/12/20 10:30:47;;;;;;;2.70;2.50;;;2.80;99.90;;;;;;5034795;28;20810;-75
2021/12/20 10:33:19;;;;;;;2.30;2.10;;;2.80;99.90;;;;;;5033981;28;20763;-67
2021/12/20 10:35:50;;;;;;;3.03;1.80;;;2.80;99.90;;;;;;5034630;28;20433;-76
2021/12/20 10:38:23;;;;;;;4.57;2.10;;;2.90;99.90;;;;;;5034630;28;20485;-77
2021/12/20 10:40:55;;;;;;;2.20;2.00;;;2.90;99.90;;;;;;5034035;28;20411;-67
2021/12/20 10:43:37;;;;;;;1.70;1.60;;;2.90;99.90;;;;;;5033712;28;20449;-71
2021/12/20 10:46:18;;;;;;;2.63;2.30;;;2.90;99.90;;;;;;5034493;28;20425;-70
2021/12/20 10:48:47;;;;;;;4.47;2.20;;;3.00;99.90;;;;;;5033148;28;20446;-74
2021/12/20 10:51:26;;;;;;;4.13;1.90;;;3.00;99.90;;;;;;5034405;28;20422;-67
2021/12/20 10:54:00;;;;;;;2.47;2.27;;;3.00;99.90;;;;;;5033175;28;20398;-76
2021/12/20 10:56:28;;;;;;;2.33;2.13;;;3.10;99.90;;;;;;5034127;28;20422;-67
2021/12/20 10:58:55;;;;;;;4.33;2.63;;;3.10;99.90;;;;;;5032910;28;20949;-71
2021/12/20 11:04:10;;;;;;;2.50;2.30;;;3.20;99.90;;;;;;5033139;28;20461;-75
2021/12/20 11:09:18;;;;;;;2.90;2.60;;;3.20;99.90;;;;;;5034127;28;20821;-75
2021/12/20 11:11:50;;;;;;;4.80;2.80;;;3.20;99.90;;;;;;5034033;28;20757;-67
2021/12/20 11:14:18;;;;;;;2.43;2.23;;;3.20;99.90;;;;;;5033322;28;20425;-75
2021/12/20 11:16:50;;;;;;;4.40;2.23;;;3.30;99.90;;;;;;5033169;28;20423;-71
2021/12/20 11:19:28;;;;;;;3.07;2.80;;;3.30;99.90;;;;;;5032461;28;20826;-73
2021/12/20 11:21:57;;;;;;;5.23;2.53;;;3.30;99.90;;;;;;5032425;28;20446;-77
2021/12/20 11:24:27;;;;;;;2.37;2.27;;;3.40;99.90;;;;;;5033269;28;20457;-76
2021/12/20 11:26:54;;;;;;;2.10;1.90;;;3.50;99.90;;;;;;5033572;28;20923;-70
2021/12/20 11:29:20;;;;;;;6.00;2.10;;;3.50;99.90;;;;;;5032504;28;21185;-67
2021/12/20 11:31:46;;;;;;;1.77;1.67;;;3.50;99.90;;;;;;5033657;28;20414;-67
2021/12/20 11:34:12;;;;;;;3.10;1.93;;;3.60;99.90;;;;;;5032839;28;20414;-76
2021/12/20 11:36:39;;;;;;;4.13;2.07;;;3.50;99.90;;;;;;5032749;28;20932;-74
2021/12/20 11:39:06;;;;;;;2.03;1.93;;;3.60;99.90;;;;;;5033435;28;20414;-78
2021/12/20 11:41:32;;;;;;;2.00;1.90;;;3.60;99.90;;;;;;5033499;28;20489;-68
2021/12/20 11:44:00;;;;;;;2.53;2.33;;;3.60;99.90;;;;;;5031361;28;20541;-76
2021/12/20 11:46:32;;;;;;;2.23;2.13;;;3.60;99.90;;;;;;5033324;28;20424;-67
2021/12/20 11:48:59;;;;;;;6.83;2.27;;;3.60;99.90;;;;;;5033385;28;20405;-69
2021/12/20 11:51:24;;;;;;;2.53;2.40;;;3.60;99.90;;;;;;5033233;28;20430;-75
2021/12/20 11:53:50;;;;;;;2.07;1.87;;;3.70;99.90;;;;;;5032534;28;20748;-76
2021/12/20 11:56:16;;;;;;;2.30;2.03;;;3.60;99.90;;;;;;5032698;28;20188;-71
2021/12/20 11:58:47;;;;;;;2.10;1.90;;;3.70;99.90;;;;;;5033034;28;20172;-75
2021/12/20 12:01:18;;;;;;;2.33;2.17;;;3.60;99.90;;;;;;5033183;28;20198;-74
2021/12/20 12:03:58;;;;;;;3.63;2.60;;;3.60;99.90;;;;;;5032197;28;20472;-78
2021/12/20 12:06:31;;;;;;;3.83;1.93;;;3.60;99.90;;;;;;5033137;28;20411;-76
2021/12/20 12:08:59;;;;;;;1.90;1.80;;;3.70;99.90;;;;;;5033109;28;20438;-67
2021/12/20 12:11:24;;;;;;;2.80;2.60;;;3.70;99.90;;;;;;5032949;28;20406;-75
2021/12/20 12:14:03;;;;;;;3.67;2.17;;;3.70;99.90;;;;;;5030235;28;20493;-76
2021/12/20 12:16:57;;;;;;;4.03;2.20;;;3.70;99.90;;;;;;5032711;28;20221;-67
2021/12/20 12:19:41;;;;;;;2.10;1.80;;;3.80;99.90;;;;;;5032998;28;20410;-69
2021/12/20 12:22:25;;;;;;;4.03;2.43;;;3.90;99.90;;;;;;5032113;28;20756;-72
2021/12/20 12:24:51;;;;;;;2.37;2.27;;;3.90;99.90;;;;;;5031885;28;20428;-76
2021/12/20 12:27:25;;;;;;;3.57;2.30;;;3.90;99.90;;;;;;5031941;28;20442;-77
2021/12/20 12:30:15;;;;;;;4.20;2.10;;;3.90;99.90;;;;;;5032984;28;20705;-68
2021/12/20 12:32:44;;;;;;;2.20;2.00;;;3.90;99.90;;;;;;5032001;28;20447;-69
2021/12/20 12:35:56;;;;;;;2.03;1.93;;;3.90;99.90;;;;;;5030992;28;20512;-76
2021/12/20 12:38:36;;;;;;;1.60;1.50;;;4.00;99.90;;;;;;5032767;28;20483;-68
2021/12/20 12:41:05;;;;;;;7.23;3.60;;;3.90;99.90;;;;;;5032767;28;20453;-68
2021/12/20 12:43:53;;;;;;;3.40;2.30;;;3.90;99.90;;;;;;5030458;28;20454;-76
2021/12/20 12:46:41;;;;;;;3.13;2.50;;;3.90;99.90;;;;;;5029273;28;20446;-68
2021/12/20 12:49:22;;;;;;;4.20;2.63;;;3.90;99.90;;;;;;5032734;28;20388;-74
2021/12/20 12:52:04;;;;;;;2.23;2.10;;;3.90;99.90;;;;;;5031204;28;20423;-69
2021/12/20 12:54:33;;;;;;;2.60;2.40;;;3.90;99.90;;;;;;5032531;28;20907;-76
2021/12/20 12:57:10;;;;;;;5.63;2.40;;;3.80;99.90;;;;;;5032588;28;20426;-75
2021/12/20 12:59:54;;;;;;;9.43;2.57;;;3.80;99.90;;;;;;5032590;28;20403;-78
2021/12/20 13:02:23;;;;;;;3.80;3.10;;;3.80;99.90;;;;;;5031201;28;20421;-71
2021/12/20 13:04:53;;;;;;;1.77;1.67;;;3.80;99.90;;;;;;5032636;28;20919;-76
2021/12/20 13:07:25;;;;;;;1.90;1.80;;;3.80;99.90;;;;;;5031317;28;20518;-73
2021/12/20 13:09:54;;;;;;;5.87;2.73;;;3.80;99.90;;;;;;5031825;28;20457;-68
2021/12/20 13:12:38;;;;;;;4.07;2.27;;;3.80;99.90;;;;;;5030982;28;20531;-67
2021/12/20 13:17:50;;;;;;;1.90;1.80;;;3.70;99.90;;;;;;5032440;28;20410;-77
2021/12/20 13:20:35;;;;;;;2.00;1.90;;;3.70;99.90;;;;;;5032395;28;20425;-76